createdAt,value
2017-08-05T00:00:27.362Z,1.93
2017-08-05T00:02:54.746Z,2.37
2017-08-05T00:05:22.146Z,1.90
2017-08-05T00:07:49.547Z,1.93
2017-08-05T00:10:16.939Z,2.37
2017-08-05T00:12:44.327Z,2.23
2017-08-05T00:15:11.714Z,1.93
2017-08-05T00:17:39.106Z,2.40
2017-08-05T00:20:06.494Z,2.10
2017-08-05T00:22:33.899Z,2.30
2017-08-05T00:25:01.299Z,2.10
2017-08-05T00:27:28.675Z,1.97
2017-08-05T00:29:56.076Z,2.30
2017-08-05T00:32:23.459Z,2.13
2017-08-05T00:34:50.855Z,2.20
2017-08-05T00:37:18.246Z,2.10
2017-08-05T00:39:45.635Z,2.27
2017-08-05T00:42:13.022Z,2.20
2017-08-05T00:44:40.419Z,2.20
2017-08-05T00:47:07.825Z,2.10
2017-08-05T00:49:35.198Z,2.00
2017-08-05T00:52:02.595Z,2.00
2017-08-05T00:54:29.998Z,2.30
2017-08-05T00:56:57.388Z,1.90
2017-08-05T00:59:24.784Z,2.10
2017-08-05T01:01:52.168Z,1.83
2017-08-05T01:04:19.558Z,2.20
2017-08-05T01:06:46.951Z,2.50
2017-08-05T01:09:14.350Z,1.90
2017-08-05T01:11:41.731Z,2.13
2017-08-05T01:14:09.118Z,1.87
2017-08-05T01:16:36.507Z,2.03
2017-08-05T01:19:03.899Z,2.00
2017-08-05T01:21:31.286Z,2.60
2017-08-05T01:23:58.683Z,2.63
2017-08-05T01:26:26.284Z,2.17
2017-08-05T01:28:53.679Z,2.07
2017-08-05T01:31:21.066Z,1.80
2017-08-05T01:33:48.455Z,2.40
2017-08-05T01:36:15.854Z,2.40
2017-08-05T01:38:43.248Z,2.47
2017-08-05T01:41:10.631Z,1.50
2017-08-05T01:43:38.246Z,2.13
2017-08-05T01:46:05.635Z,2.77
2017-08-05T01:48:33.031Z,2.83
2017-08-05T01:51:00.423Z,2.50
2017-08-05T01:53:27.819Z,1.83
2017-08-05T01:55:55.211Z,1.93
2017-08-05T01:58:22.601Z,2.33
2017-08-05T02:00:49.985Z,2.30
2017-08-05T02:03:17.380Z,2.10
2017-08-05T02:05:44.981Z,2.80
2017-08-05T02:08:12.383Z,2.27
2017-08-05T02:10:39.771Z,3.00
2017-08-05T02:13:07.154Z,2.73
2017-08-05T02:15:34.765Z,1.60
2017-08-05T02:18:02.149Z,1.80
2017-08-05T02:20:29.550Z,2.47
2017-08-05T02:22:56.934Z,2.40
2017-08-05T02:25:24.335Z,2.77
2017-08-05T02:27:51.734Z,2.20
2017-08-05T02:30:19.127Z,1.63
2017-08-05T02:32:46.540Z,2.63
2017-08-05T02:35:13.928Z,2.67
2017-08-05T02:37:41.312Z,2.10
2017-08-05T02:40:08.709Z,2.43
2017-08-05T02:42:36.095Z,2.37
2017-08-05T02:45:03.487Z,2.17
2017-08-05T02:47:30.875Z,1.90
2017-08-05T02:49:58.351Z,2.73
2017-08-05T02:52:25.735Z,2.07
2017-08-05T02:54:53.139Z,2.00
2017-08-05T02:57:20.524Z,3.20
2017-08-05T02:59:47.926Z,2.13
2017-08-05T03:02:15.338Z,2.90
2017-08-05T03:04:42.739Z,2.00
2017-08-05T03:07:10.138Z,2.70
2017-08-05T03:09:37.528Z,1.60
2017-08-05T03:12:04.920Z,2.80
2017-08-05T03:14:32.303Z,2.30
2017-08-05T03:16:59.699Z,2.27
2017-08-05T03:19:27.100Z,2.57
2017-08-05T03:21:54.494Z,2.20
2017-08-05T03:24:21.879Z,2.40
2017-08-05T03:26:49.266Z,2.03
2017-08-05T03:29:16.665Z,2.37
2017-08-05T03:31:44.054Z,2.10
2017-08-05T03:34:11.445Z,2.17
2017-08-05T03:36:38.828Z,2.43
2017-08-05T03:39:06.219Z,2.77
2017-08-05T03:41:33.630Z,1.70
2017-08-05T03:44:01.019Z,2.60
2017-08-05T03:46:28.402Z,1.80
2017-08-05T03:48:55.790Z,2.17
2017-08-05T03:51:23.195Z,3.23
2017-08-05T03:53:50.582Z,2.43
2017-08-05T03:56:17.993Z,2.37
2017-08-05T03:58:45.379Z,2.70
2017-08-05T04:01:12.786Z,2.17
2017-08-05T04:03:40.167Z,2.40
2017-08-05T04:06:07.552Z,2.90
2017-08-05T04:08:34.970Z,2.70
2017-08-05T04:11:02.679Z,3.37
2017-08-05T04:13:30.053Z,2.80
2017-08-05T04:15:57.447Z,2.90
2017-08-05T04:18:24.839Z,2.70
2017-08-05T04:20:52.234Z,2.73
2017-08-05T04:23:19.627Z,2.80
2017-08-05T04:25:47.014Z,2.87
2017-08-05T04:28:14.420Z,2.03
2017-08-05T04:30:41.807Z,2.60
2017-08-05T04:33:09.227Z,2.90
2017-08-05T04:35:36.616Z,2.80
2017-08-05T04:38:04.000Z,2.70
2017-08-05T04:40:31.411Z,2.60
2017-08-05T04:42:58.794Z,2.70
2017-08-05T04:45:26.190Z,2.57
2017-08-05T04:47:53.575Z,2.90
2017-08-05T04:50:20.971Z,2.70
2017-08-05T04:52:48.380Z,3.40
2017-08-05T04:55:15.767Z,2.20
2017-08-05T04:57:43.168Z,3.20
2017-08-05T05:00:10.563Z,3.13
2017-08-05T05:02:37.946Z,2.77
2017-08-05T05:05:05.339Z,2.70
2017-08-05T05:07:32.730Z,2.33
2017-08-05T05:10:00.122Z,2.90
2017-08-05T05:12:27.511Z,2.40
2017-08-05T05:14:55.179Z,2.80
2017-08-05T05:17:22.570Z,2.50
2017-08-05T05:19:49.979Z,2.67
2017-08-05T05:22:17.366Z,2.63
2017-08-05T05:24:44.763Z,3.00
2017-08-05T05:27:12.154Z,3.10
2017-08-05T05:29:39.546Z,2.70
2017-08-05T05:32:06.933Z,3.03
2017-08-05T05:34:34.332Z,2.80
2017-08-05T05:37:01.711Z,3.00
2017-08-05T05:39:29.099Z,2.40
2017-08-05T05:41:56.491Z,2.53
2017-08-05T05:44:23.878Z,2.90
2017-08-05T05:46:51.278Z,2.30
2017-08-05T05:49:18.670Z,2.10
2017-08-05T05:51:46.067Z,3.30
2017-08-05T05:54:13.463Z,2.67
2017-08-05T05:56:40.852Z,2.23
2017-08-05T05:59:08.247Z,2.83
2017-08-05T06:01:35.643Z,2.50
2017-08-05T06:04:03.039Z,2.20
2017-08-05T06:06:30.443Z,2.33
2017-08-05T06:08:57.855Z,2.73
2017-08-05T06:11:25.255Z,3.00
2017-08-05T06:13:52.646Z,2.77
2017-08-05T06:16:20.039Z,2.60
2017-08-05T06:18:47.428Z,2.63
2017-08-05T06:21:14.839Z,2.43
2017-08-05T06:23:42.227Z,2.60
2017-08-05T06:26:09.615Z,2.20
2017-08-05T06:28:37.011Z,2.80
2017-08-05T06:31:04.394Z,2.47
2017-08-05T06:33:31.794Z,2.67
2017-08-05T06:35:59.182Z,2.80
2017-08-05T06:38:26.580Z,2.87
2017-08-05T06:40:53.966Z,2.33
2017-08-05T06:43:21.364Z,2.70
2017-08-05T06:45:48.755Z,2.70
2017-08-05T06:48:16.156Z,1.83
2017-08-05T06:50:43.546Z,2.10
2017-08-05T06:53:10.947Z,2.33
2017-08-05T06:55:38.339Z,2.43
2017-08-05T06:58:05.738Z,3.13
2017-08-05T07:00:33.140Z,2.70
2017-08-05T07:03:00.533Z,2.43
2017-08-05T07:05:27.918Z,2.70
2017-08-05T07:07:55.314Z,2.10
2017-08-05T07:10:22.973Z,2.50
2017-08-05T07:12:50.362Z,2.20
2017-08-05T07:15:17.755Z,2.63
2017-08-05T07:17:45.144Z,3.67
2017-08-05T07:20:12.536Z,2.30
2017-08-05T07:22:39.927Z,2.30
2017-08-05T07:25:07.313Z,2.30
2017-08-05T07:27:34.714Z,2.73
2017-08-05T07:30:02.105Z,2.57
2017-08-05T07:32:29.499Z,2.27
2017-08-05T07:34:56.911Z,3.53
2017-08-05T07:37:24.425Z,3.10
2017-08-05T07:39:51.808Z,3.00
2017-08-05T07:42:19.194Z,2.57
2017-08-05T07:44:46.590Z,2.17
2017-08-05T07:47:13.994Z,2.30
2017-08-05T07:49:41.663Z,3.40
2017-08-05T07:52:09.063Z,2.60
2017-08-05T07:54:36.457Z,2.87
2017-08-05T07:57:03.872Z,2.07
2017-08-05T07:59:31.254Z,1.97
2017-08-05T08:01:58.639Z,2.07
2017-08-05T08:04:26.047Z,2.47
2017-08-05T08:06:54.306Z,2.57
2017-08-05T08:09:21.694Z,3.50
2017-08-05T08:11:49.094Z,3.03
2017-08-05T08:14:16.486Z,2.73
2017-08-05T08:16:43.879Z,2.00
2017-08-05T08:19:11.274Z,2.50
2017-08-05T08:21:38.675Z,2.43
2017-08-05T08:24:06.063Z,2.67
2017-08-05T08:26:33.470Z,2.93
2017-08-05T08:29:00.854Z,3.30
2017-08-05T08:31:28.247Z,3.33
2017-08-05T08:33:55.651Z,3.33
2017-08-05T08:36:23.039Z,3.77
2017-08-05T08:38:50.430Z,2.40
2017-08-05T08:41:17.858Z,3.00
2017-08-05T08:43:45.255Z,2.63
2017-08-05T08:46:12.651Z,3.00
2017-08-05T08:48:40.314Z,3.10
2017-08-05T08:51:07.831Z,2.93
2017-08-05T08:53:35.211Z,2.13
2017-08-05T08:56:02.610Z,2.70
2017-08-05T08:58:29.993Z,3.00
2017-08-05T09:00:57.394Z,3.63
2017-08-05T09:03:24.779Z,2.63
2017-08-05T09:05:52.179Z,2.50
2017-08-05T09:08:19.562Z,2.60
2017-08-05T09:10:46.961Z,3.03
2017-08-05T09:13:14.349Z,3.03
2017-08-05T09:15:41.742Z,3.17
2017-08-05T09:18:09.128Z,2.40
2017-08-05T09:20:36.519Z,2.10
2017-08-05T09:23:03.912Z,2.57
2017-08-05T09:25:31.309Z,2.37
2017-08-05T09:27:58.691Z,2.23
2017-08-05T09:30:26.091Z,2.80
2017-08-05T09:32:53.490Z,1.90
2017-08-05T09:35:20.886Z,2.20
2017-08-05T09:37:48.287Z,1.90
2017-08-05T09:40:15.681Z,2.40
2017-08-05T09:42:43.071Z,2.40
2017-08-05T09:45:10.470Z,2.30
2017-08-05T09:47:37.855Z,3.20
2017-08-05T09:50:05.516Z,1.83
2017-08-05T09:52:32.902Z,2.30
2017-08-05T09:55:00.293Z,2.37
2017-08-05T09:57:27.684Z,2.77
2017-08-05T09:59:55.086Z,2.40
2017-08-05T10:02:22.486Z,2.47
2017-08-05T10:04:49.873Z,3.03
2017-08-05T10:07:17.267Z,2.67
2017-08-05T10:09:44.655Z,2.90
2017-08-05T10:12:12.050Z,3.20
2017-08-05T10:14:39.444Z,2.60
2017-08-05T10:17:06.840Z,2.27
2017-08-05T10:19:34.221Z,1.87
2017-08-05T10:22:01.620Z,2.13
2017-08-05T10:24:29.008Z,2.47
2017-08-05T10:26:56.399Z,1.90
2017-08-05T10:29:23.790Z,2.50
2017-08-05T10:31:51.194Z,3.87
2017-08-05T10:34:18.582Z,3.60
2017-08-05T10:36:45.981Z,3.20
2017-08-05T10:39:13.369Z,3.37
2017-08-05T10:41:40.759Z,3.20
2017-08-05T10:44:08.160Z,3.03
2017-08-05T10:46:35.550Z,2.73
2017-08-05T10:49:02.945Z,2.80
2017-08-05T10:51:30.328Z,2.90
2017-08-05T10:53:57.736Z,2.63
2017-08-05T10:56:25.114Z,3.20
2017-08-05T10:58:52.507Z,3.50
2017-08-05T11:01:19.910Z,3.23
2017-08-05T11:03:47.301Z,2.80
2017-08-05T11:06:14.682Z,4.20
2017-08-05T11:08:42.105Z,2.90
2017-08-05T11:11:09.472Z,3.30
2017-08-05T11:13:36.906Z,2.77
2017-08-05T11:16:04.290Z,3.30
2017-08-05T11:18:31.686Z,3.10
2017-08-05T11:20:59.072Z,3.73
2017-08-05T11:23:26.486Z,4.10
2017-08-05T11:25:53.879Z,4.47
2017-08-05T11:28:21.262Z,3.80
2017-08-05T11:30:48.658Z,4.03
2017-08-05T11:33:16.050Z,3.90
2017-08-05T11:35:43.441Z,3.90
2017-08-05T11:38:11.613Z,5.07
2017-08-05T11:40:39.006Z,5.50
2017-08-05T11:43:06.402Z,7.43
2017-08-05T11:45:33.811Z,6.93
2017-08-05T11:48:01.203Z,6.70
2017-08-05T11:50:28.635Z,7.07
2017-08-05T11:52:56.026Z,6.03
2017-08-05T11:55:23.434Z,6.30
2017-08-05T11:57:50.821Z,6.40
2017-08-05T12:00:18.222Z,5.33
2017-08-05T12:02:45.619Z,6.77
2017-08-05T12:05:13.014Z,7.50
2017-08-05T12:07:40.398Z,7.33
2017-08-05T12:10:07.796Z,7.90
2017-08-05T12:12:35.187Z,5.57
2017-08-05T12:15:02.579Z,7.70
2017-08-05T12:17:29.962Z,4.90
2017-08-05T12:19:57.353Z,6.50
2017-08-05T12:22:24.902Z,7.43
2017-08-05T12:24:52.291Z,6.37
2017-08-05T12:27:19.686Z,6.17
2017-08-05T12:29:47.076Z,5.87
2017-08-05T12:32:14.474Z,5.10
2017-08-05T12:34:41.851Z,5.70
2017-08-05T12:37:09.247Z,5.17
2017-08-05T12:39:36.655Z,5.70
2017-08-05T12:42:04.094Z,8.97
2017-08-05T12:44:31.485Z,7.90
2017-08-05T12:46:58.919Z,7.27
2017-08-05T12:49:26.317Z,8.37
2017-08-05T12:51:53.724Z,9.30
2017-08-05T12:54:21.139Z,10.30
2017-08-05T12:56:48.577Z,10.40
2017-08-05T12:59:15.973Z,8.10
2017-08-05T13:01:43.388Z,11.93
2017-08-05T13:04:10.803Z,10.30
2017-08-05T13:06:38.205Z,10.73
2017-08-05T13:09:05.960Z,9.80
2017-08-05T13:11:33.366Z,10.13
2017-08-05T13:14:00.762Z,7.30
2017-08-05T13:16:28.154Z,7.53
2017-08-05T13:18:55.540Z,5.97
2017-08-05T13:21:22.926Z,8.90
2017-08-05T13:23:50.328Z,7.93
2017-08-05T13:26:17.720Z,6.70
2017-08-05T13:31:24.522Z,6.23
2017-08-05T13:33:51.924Z,8.07
2017-08-05T13:36:19.316Z,8.37
2017-08-05T13:38:46.707Z,6.97
2017-08-05T13:41:14.103Z,7.40
2017-08-05T13:43:41.490Z,7.10
2017-08-05T13:46:08.890Z,8.00
2017-08-05T13:48:36.290Z,8.03
2017-08-05T13:51:03.706Z,6.27
2017-08-05T13:53:31.095Z,5.37
2017-08-05T13:55:58.478Z,6.90
2017-08-05T13:58:25.902Z,6.53
2017-08-05T14:00:53.313Z,6.13
2017-08-05T14:03:20.705Z,5.10
2017-08-05T14:05:48.320Z,5.90
2017-08-05T14:08:15.708Z,5.33
2017-08-05T14:10:43.090Z,4.80
2017-08-05T14:13:10.483Z,5.17
2017-08-05T14:15:37.884Z,5.77
2017-08-05T14:18:05.362Z,5.53
2017-08-05T14:20:32.733Z,6.43
2017-08-05T14:23:00.127Z,5.80
2017-08-05T14:25:27.510Z,5.60
2017-08-05T14:27:54.906Z,5.80
2017-08-05T14:30:22.295Z,5.00
2017-08-05T14:32:49.698Z,5.43
2017-08-05T14:35:17.080Z,5.77
2017-08-05T14:37:44.476Z,4.30
2017-08-05T14:40:11.854Z,5.20
2017-08-05T14:42:39.257Z,5.10
2017-08-05T14:45:06.651Z,4.93
2017-08-05T14:47:34.043Z,5.90
2017-08-05T14:50:01.643Z,4.50
2017-08-05T14:52:29.038Z,4.50
2017-08-05T14:54:56.427Z,4.13
2017-08-05T14:57:23.823Z,4.83
2017-08-05T14:59:51.208Z,4.50
2017-08-05T15:02:18.615Z,5.27
2017-08-05T15:04:46.010Z,4.80
2017-08-05T15:07:13.404Z,5.23
2017-08-05T15:09:40.803Z,3.80
2017-08-05T15:12:08.195Z,5.37
2017-08-05T15:14:35.594Z,6.20
2017-08-05T15:17:02.983Z,8.07
2017-08-05T15:19:30.592Z,7.77
2017-08-05T15:21:57.983Z,8.70
2017-08-05T15:24:25.386Z,9.33
2017-08-05T15:26:52.779Z,9.17
2017-08-05T15:29:20.187Z,11.80
2017-08-05T15:31:47.587Z,10.70
2017-08-05T15:34:15.001Z,8.63
2017-08-05T15:36:42.423Z,7.47
2017-08-05T15:39:09.823Z,5.80
2017-08-05T15:41:37.216Z,5.40
2017-08-05T15:44:04.678Z,4.47
2017-08-05T15:46:32.123Z,5.10
2017-08-05T15:48:59.523Z,4.40
2017-08-05T15:51:26.917Z,4.30
2017-08-05T15:53:54.299Z,3.83
2017-08-05T15:56:21.695Z,5.40
2017-08-05T15:58:49.087Z,7.40
2017-08-05T16:01:16.499Z,8.73
2017-08-05T16:03:43.899Z,4.57
2017-08-05T16:06:12.155Z,3.80
2017-08-05T16:08:39.539Z,3.50
2017-08-05T16:11:06.956Z,3.57
2017-08-05T16:13:34.352Z,5.00
2017-08-05T16:16:01.761Z,3.50
2017-08-05T16:18:29.178Z,2.60
2017-08-05T16:20:56.550Z,3.33
2017-08-05T16:23:23.947Z,4.87
2017-08-05T16:25:51.335Z,3.60
2017-08-05T16:28:18.723Z,4.27
2017-08-05T16:30:46.123Z,3.80
2017-08-05T16:33:13.514Z,3.70
2017-08-05T16:35:40.915Z,3.20
2017-08-05T16:38:11.370Z,3.87
2017-08-05T16:40:38.784Z,3.87
2017-08-05T16:43:06.168Z,3.53
2017-08-05T16:45:33.566Z,3.70
2017-08-05T16:48:00.951Z,3.70
2017-08-05T16:50:28.402Z,3.70
2017-08-05T16:52:55.791Z,3.77
2017-08-05T16:55:23.199Z,3.03
2017-08-05T16:57:50.592Z,3.03
2017-08-05T17:00:18.014Z,3.17
2017-08-05T17:02:45.418Z,3.30
2017-08-05T17:05:12.800Z,3.50
2017-08-05T17:07:40.202Z,3.40
2017-08-05T17:10:07.590Z,4.23
2017-08-05T17:12:34.995Z,3.90
2017-08-05T17:15:02.399Z,4.30
2017-08-05T17:17:29.811Z,3.40
2017-08-05T17:19:57.196Z,4.20
2017-08-05T17:22:24.599Z,4.17
2017-08-05T17:24:51.999Z,3.30
2017-08-05T17:27:19.387Z,3.13
2017-08-05T17:29:46.788Z,4.17
2017-08-05T17:32:14.187Z,3.50
2017-08-05T17:34:41.575Z,3.63
2017-08-05T17:37:08.971Z,3.40
2017-08-05T17:39:36.359Z,3.67
2017-08-05T17:42:03.915Z,3.70
2017-08-05T17:44:31.306Z,3.23
2017-08-05T17:46:58.722Z,2.87
2017-08-05T17:49:26.117Z,2.70
2017-08-05T17:51:53.506Z,2.80
2017-08-05T17:54:20.939Z,2.70
2017-08-05T17:56:48.322Z,3.10
2017-08-05T17:59:15.715Z,2.83
2017-08-05T18:01:43.110Z,3.03
2017-08-05T18:04:10.507Z,3.40
2017-08-05T18:06:37.899Z,3.50
2017-08-05T18:09:05.295Z,3.30
2017-08-05T18:11:32.685Z,3.23
2017-08-05T18:14:00.083Z,3.53
2017-08-05T18:16:27.488Z,3.13
2017-08-05T18:18:54.904Z,2.70
2017-08-05T18:21:22.299Z,3.40
2017-08-05T18:23:49.688Z,2.90
2017-08-05T18:26:17.079Z,3.00
2017-08-05T18:28:44.475Z,2.90
2017-08-05T18:31:11.880Z,2.50
2017-08-05T18:33:39.272Z,4.10
2017-08-05T18:36:06.676Z,3.30
2017-08-05T18:38:34.067Z,3.27
2017-08-05T18:41:01.475Z,3.23
2017-08-05T18:43:28.867Z,3.23
2017-08-05T18:45:56.263Z,3.50
2017-08-05T18:48:23.661Z,3.50
2017-08-05T18:50:51.042Z,3.23
2017-08-05T18:53:18.448Z,3.50
2017-08-05T18:55:45.844Z,3.57
2017-08-05T18:58:13.239Z,4.37
2017-08-05T19:00:40.636Z,4.70
2017-08-05T19:03:08.022Z,3.47
2017-08-05T19:05:35.423Z,3.83
2017-08-05T19:08:02.806Z,3.60
2017-08-05T19:10:30.208Z,4.00
2017-08-05T19:12:57.595Z,3.33
2017-08-05T19:15:24.986Z,4.40
2017-08-05T19:17:52.382Z,4.33
2017-08-05T19:20:19.783Z,4.03
2017-08-05T19:22:47.174Z,4.20
2017-08-05T19:25:14.559Z,4.50
2017-08-05T19:27:41.951Z,4.97
2017-08-05T19:30:09.352Z,4.70
2017-08-05T19:32:36.744Z,4.30
2017-08-05T19:35:04.150Z,4.40
2017-08-05T19:37:31.538Z,4.40
2017-08-05T19:39:58.930Z,4.23
2017-08-05T19:42:26.340Z,4.83
2017-08-05T19:44:53.741Z,5.30
2017-08-05T19:47:21.126Z,4.40
2017-08-05T19:49:48.516Z,4.60
2017-08-05T19:52:15.920Z,5.40
2017-08-05T19:54:43.323Z,5.33
2017-08-05T19:57:10.719Z,6.00
2017-08-05T19:59:38.116Z,4.67
2017-08-05T20:02:05.535Z,4.17
2017-08-05T20:04:32.919Z,4.70
2017-08-05T20:07:00.325Z,4.83
2017-08-05T20:09:27.720Z,4.87
2017-08-05T20:11:55.119Z,4.60
2017-08-05T20:14:22.511Z,5.40
2017-08-05T20:16:49.907Z,5.10
2017-08-05T20:19:17.303Z,4.63
2017-08-05T20:21:44.702Z,5.40
2017-08-05T20:24:12.094Z,4.63
2017-08-05T20:26:39.482Z,4.87
2017-08-05T20:29:06.899Z,5.10
2017-08-05T20:31:34.290Z,4.77
2017-08-05T20:34:01.714Z,4.80
2017-08-05T20:36:29.113Z,4.60
2017-08-05T20:38:56.507Z,4.83
2017-08-05T20:41:23.891Z,4.80
2017-08-05T20:43:51.313Z,4.70
2017-08-05T20:46:18.713Z,5.70
2017-08-05T20:48:46.124Z,5.23
2017-08-05T20:51:13.507Z,5.53
2017-08-05T20:53:40.919Z,5.37
2017-08-05T20:56:08.307Z,4.20
2017-08-05T20:58:35.778Z,5.17
2017-08-05T21:01:03.175Z,5.40
2017-08-05T21:03:30.593Z,5.17
2017-08-05T21:05:57.979Z,5.00
2017-08-05T21:08:25.447Z,5.60
2017-08-05T21:10:52.837Z,5.83
2017-08-05T21:13:20.223Z,5.13
2017-08-05T21:15:47.624Z,4.90
2017-08-05T21:18:15.022Z,5.30
2017-08-05T21:20:42.409Z,7.37
2017-08-05T21:23:09.809Z,5.50
2017-08-05T21:25:37.194Z,6.70
2017-08-05T21:28:04.602Z,6.43
2017-08-05T21:30:31.990Z,6.30
2017-08-05T21:32:59.409Z,7.30
2017-08-05T21:35:26.800Z,7.27
2017-08-05T21:37:54.297Z,7.07
2017-08-05T21:40:21.689Z,7.50
2017-08-05T21:42:49.082Z,7.30
2017-08-05T21:45:16.549Z,8.00
2017-08-05T21:47:43.963Z,7.30
2017-08-05T21:50:11.362Z,6.50
2017-08-05T21:52:38.776Z,7.30
2017-08-05T21:55:06.168Z,7.97
2017-08-05T21:57:33.567Z,7.90
2017-08-05T22:00:01.176Z,7.23
2017-08-05T22:02:28.574Z,7.97
2017-08-05T22:04:55.971Z,7.23
2017-08-05T22:07:23.387Z,7.67
2017-08-05T22:09:50.777Z,7.07
2017-08-05T22:12:18.178Z,6.67
2017-08-05T22:14:45.571Z,7.30
2017-08-05T22:17:12.966Z,6.50
2017-08-05T22:19:40.403Z,6.43
2017-08-05T22:22:07.811Z,5.77
2017-08-05T22:24:35.208Z,6.00
2017-08-05T22:27:02.597Z,5.73
2017-08-05T22:29:29.997Z,6.23
2017-08-05T22:31:57.395Z,6.07
2017-08-05T22:34:24.806Z,5.40
2017-08-05T22:36:52.204Z,5.70
2017-08-05T22:39:19.595Z,5.20
2017-08-05T22:41:46.997Z,5.57
2017-08-05T22:44:14.391Z,4.90
2017-08-05T22:46:41.784Z,4.63
2017-08-05T22:49:09.174Z,5.10
2017-08-05T22:51:36.575Z,4.27
2017-08-05T22:54:03.990Z,4.30
2017-08-05T22:56:31.395Z,3.70
2017-08-05T22:58:58.790Z,3.07
2017-08-05T23:01:26.211Z,3.90
2017-08-05T23:03:53.598Z,3.43
2017-08-05T23:06:21.007Z,3.63
2017-08-05T23:08:48.394Z,3.13
2017-08-05T23:11:15.794Z,3.30
2017-08-05T23:13:43.187Z,2.90
2017-08-05T23:16:10.638Z,3.83
2017-08-05T23:18:38.019Z,3.80
2017-08-05T23:21:05.427Z,3.47
2017-08-05T23:23:32.811Z,3.73
2017-08-05T23:26:00.215Z,3.00
2017-08-05T23:28:27.614Z,3.40
2017-08-05T23:30:55.036Z,3.60
2017-08-05T23:33:22.426Z,3.20
2017-08-05T23:35:49.832Z,4.37
2017-08-05T23:38:17.244Z,4.17
2017-08-05T23:40:44.639Z,3.63
2017-08-05T23:43:12.040Z,4.60
2017-08-05T23:45:39.643Z,4.07
2017-08-05T23:48:07.038Z,4.57
2017-08-05T23:50:34.441Z,4.50
2017-08-05T23:53:01.838Z,4.80
2017-08-05T23:55:29.219Z,4.03
2017-08-05T23:57:56.615Z,4.60
